sensor_id;sensor_type;location;lat;lon;timestamp;P1;durP1;ratioP1;P2;durP2;ratioP2
787;SDS011;16074;42.708;23.312;2023-04-01T00:00:58;22.35;;;19.95;;
787;SDS011;16074;42.708;23.312;2023-04-01T00:03:29;27.15;;;20.75;;
787;SDS011;16074;42.708;23.312;2023-04-01T00:06:00;23.88;;;21.08;;
787;SDS011;16074;42.708;23.312;2023-04-01T00:08:29;23.27;;;20.08;;
787;SDS011;16074;42.708;23.312;2023-04-01T00:10:57;25.70;;;20.83;;
787;SDS011;16074;42.708;23.312;2023-04-01T00:13:26;25.38;;;21.38;;
787;SDS011;16074;42.708;23.312;2023-04-01T00:15:55;26.00;;;21.42;;
787;SDS011;16074;42.708;23.312;2023-04-01T00:18:27;28.60;;;22.52;;
787;SDS011;16074;42.708;23.312;2023-04-01T00:20:55;25.70;;;21.65;;
787;SDS011;16074;42.708;23.312;2023-04-01T00:23:24;26.77;;;20.88;;
787;SDS011;16074;42.708;23.312;2023-04-01T00:25:52;25.90;;;20.40;;
787;SDS011;16074;42.708;23.312;2023-04-01T00:28:20;22.83;;;20.42;;
787;SDS011;16074;42.708;23.312;2023-04-01T00:30:48;26.77;;;22.17;;
787;SDS011;16074;42.708;23.312;2023-04-01T00:33:16;25.35;;;22.50;;
787;SDS011;16074;42.708;23.312;2023-04-01T00:35:46;23.23;;;20.75;;
787;SDS011;16074;42.708;23.312;2023-04-01T00:38:15;24.63;;;21.98;;
787;SDS011;16074;42.708;23.312;2023-04-01T00:40:45;22.23;;;19.63;;
787;SDS011;16074;42.708;23.312;2023-04-01T00:43:15;22.25;;;19.42;;
787;SDS011;16074;42.708;23.312;2023-04-01T00:45:47;19.88;;;17.55;;
787;SDS011;16074;42.708;23.312;2023-04-01T00:48:16;20.65;;;17.08;;
787;SDS011;16074;42.708;23.312;2023-04-01T00:50:49;22.25;;;18.17;;
787;SDS011;16074;42.708;23.312;2023-04-01T00:53:22;20.25;;;16.55;;
787;SDS011;16074;42.708;23.312;2023-04-01T00:55:53;19.45;;;15.43;;
787;SDS011;16074;42.708;23.312;2023-04-01T00:58:24;19.50;;;17.15;;
787;SDS011;16074;42.708;23.312;2023-04-01T01:00:57;17.58;;;15.90;;
787;SDS011;16074;42.708;23.312;2023-04-01T01:03:27;19.90;;;15.93;;
787;SDS011;16074;42.708;23.312;2023-04-01T01:08:52;17.33;;;15.50;;
787;SDS011;16074;42.708;23.312;2023-04-01T01:11:39;30.05;;;16.67;;
787;SDS011;16074;42.708;23.312;2023-04-01T01:14:19;18.90;;;16.70;;
787;SDS011;16074;42.708;23.312;2023-04-01T01:16:54;19.20;;;14.70;;
787;SDS011;16074;42.708;23.312;2023-04-01T01:19:37;19.00;;;16.88;;
787;SDS011;16074;42.708;23.312;2023-04-01T01:22:23;17.90;;;16.25;;
787;SDS011;16074;42.708;23.312;2023-04-01T01:25:30;24.90;;;16.45;;
787;SDS011;16074;42.708;23.312;2023-04-01T01:28:15;18.73;;;16.33;;
787;SDS011;16074;42.708;23.312;2023-04-01T01:30:59;18.45;;;16.35;;
787;SDS011;16074;42.708;23.312;2023-04-01T01:33:48;17.15;;;15.52;;
787;SDS011;16074;42.708;23.312;2023-04-01T01:36:27;16.00;;;14.40;;
787;SDS011;16074;42.708;23.312;2023-04-01T01:39:03;18.45;;;16.42;;
787;SDS011;16074;42.708;23.312;2023-04-01T01:41:33;19.08;;;14.95;;
787;SDS011;16074;42.708;23.312;2023-04-01T01:44:04;17.90;;;14.82;;
787;SDS011;16074;42.708;23.312;2023-04-01T01:46:36;16.15;;;14.48;;
787;SDS011;16074;42.708;23.312;2023-04-01T01:49:07;15.30;;;13.82;;
787;SDS011;16074;42.708;23.312;2023-04-01T01:51:39;18.90;;;13.75;;
787;SDS011;16074;42.708;23.312;2023-04-01T01:54:12;18.50;;;14.05;;
787;SDS011;16074;42.708;23.312;2023-04-01T01:56:41;14.50;;;12.82;;
787;SDS011;16074;42.708;23.312;2023-04-01T01:59:13;13.30;;;11.98;;
787;SDS011;16074;42.708;23.312;2023-04-01T02:01:45;16.17;;;12.63;;
787;SDS011;16074;42.708;23.312;2023-04-01T02:04:17;12.60;;;11.50;;
787;SDS011;16074;42.708;23.312;2023-04-01T02:06:50;13.02;;;11.70;;
787;SDS011;16074;42.708;23.312;2023-04-01T02:09:23;17.13;;;12.70;;
787;SDS011;16074;42.708;23.312;2023-04-01T02:11:54;13.45;;;11.82;;
787;SDS011;16074;42.708;23.312;2023-04-01T02:14:26;14.63;;;12.60;;
787;SDS011;16074;42.708;23.312;2023-04-01T02:16:58;12.60;;;10.68;;
787;SDS011;16074;42.708;23.312;2023-04-01T02:19:31;12.40;;;11.20;;
787;SDS011;16074;42.708;23.312;2023-04-01T02:22:04;13.85;;;10.85;;
787;SDS011;16074;42.708;23.312;2023-04-01T02:24:36;10.75;;;9.90;;
787;SDS011;16074;42.708;23.312;2023-04-01T02:27:08;12.07;;;10.88;;
787;SDS011;16074;42.708;23.312;2023-04-01T02:29:37;15.63;;;11.43;;
787;SDS011;16074;42.708;23.312;2023-04-01T02:32:07;14.85;;;10.98;;
787;SDS011;16074;42.708;23.312;2023-04-01T02:34:37;13.60;;;11.55;;
787;SDS011;16074;42.708;23.312;2023-04-01T02:37:07;13.18;;;10.98;;
787;SDS011;16074;42.708;23.312;2023-04-01T02:39:36;12.07;;;10.77;;
787;SDS011;16074;42.708;23.312;2023-04-01T02:42:05;12.75;;;11.43;;
787;SDS011;16074;42.708;23.312;2023-04-01T02:44:33;12.10;;;9.80;;
787;SDS011;16074;42.708;23.312;2023-04-01T02:47:02;16.13;;;13.57;;
787;SDS011;16074;42.708;23.312;2023-04-01T02:49:31;15.80;;;14.20;;
787;SDS011;16074;42.708;23.312;2023-04-01T02:51:59;20.40;;;15.00;;
787;SDS011;16074;42.708;23.312;2023-04-01T02:54:29;18.70;;;15.40;;
787;SDS011;16074;42.708;23.312;2023-04-01T02:56:57;19.08;;;15.75;;
787;SDS011;16074;42.708;23.312;2023-04-01T02:59:26;18.67;;;15.35;;
787;SDS011;16074;42.708;23.312;2023-04-01T03:01:54;17.83;;;16.13;;
787;SDS011;16074;42.708;23.312;2023-04-01T03:04:22;21.88;;;16.38;;
787;SDS011;16074;42.708;23.312;2023-04-01T03:06:51;17.85;;;16.10;;
787;SDS011;16074;42.708;23.312;2023-04-01T03:09:19;18.95;;;17.02;;
787;SDS011;16074;42.708;23.312;2023-04-01T03:11:49;17.52;;;15.60;;
787;SDS011;16074;42.708;23.312;2023-04-01T03:14:17;21.90;;;18.30;;
787;SDS011;16074;42.708;23.312;2023-04-01T03:16:46;18.35;;;16.50;;
787;SDS011;16074;42.708;23.312;2023-04-01T03:19:15;22.95;;;17.13;;
787;SDS011;16074;42.708;23.312;2023-04-01T03:21:43;22.65;;;19.00;;
787;SDS011;16074;42.708;23.312;2023-04-01T03:24:11;29.48;;;20.42;;
787;SDS011;16074;42.708;23.312;2023-04-01T03:26:40;20.23;;;17.88;;
787;SDS011;16074;42.708;23.312;2023-04-01T03:29:10;20.77;;;18.00;;
787;SDS011;16074;42.708;23.312;2023-04-01T03:31:38;24.17;;;18.40;;
787;SDS011;16074;42.708;23.312;2023-04-01T03:34:07;19.88;;;17.00;;
787;SDS011;16074;42.708;23.312;2023-04-01T03:36:35;23.42;;;16.58;;
787;SDS011;16074;42.708;23.312;2023-04-01T03:39:04;19.02;;;17.02;;
787;SDS011;16074;42.708;23.312;2023-04-01T03:41:39;18.00;;;15.13;;
787;SDS011;16074;42.708;23.312;2023-04-01T03:44:08;18.50;;;14.95;;
787;SDS011;16074;42.708;23.312;2023-04-01T03:46:38;18.55;;;15.82;;
787;SDS011;16074;42.708;23.312;2023-04-01T03:49:07;16.60;;;14.80;;
787;SDS011;16074;42.708;23.312;2023-04-01T03:51:38;24.77;;;15.85;;
787;SDS011;16074;42.708;23.312;2023-04-01T03:54:06;17.25;;;14.85;;
787;SDS011;16074;42.708;23.312;2023-04-01T03:56:35;22.38;;;15.75;;
787;SDS011;16074;42.708;23.312;2023-04-01T03:59:05;20.25;;;17.05;;
787;SDS011;16074;42.708;23.312;2023-04-01T04:01:35;17.02;;;15.43;;
787;SDS011;16074;42.708;23.312;2023-04-01T04:04:05;17.85;;;16.13;;
787;SDS011;16074;42.708;23.312;2023-04-01T04:06:34;21.23;;;18.35;;
787;SDS011;16074;42.708;23.312;2023-04-01T04:09:03;20.13;;;17.55;;
787;SDS011;16074;42.708;23.312;2023-04-01T04:11:31;24.55;;;16.38;;
787;SDS011;16074;42.708;23.312;2023-04-01T04:14:00;18.63;;;16.70;;
787;SDS011;16074;42.708;23.312;2023-04-01T04:16:28;20.52;;;15.88;;
787;SDS011;16074;42.708;23.312;2023-04-01T04:19:01;20.27;;;17.20;;
787;SDS011;16074;42.708;23.312;2023-04-01T04:21:30;16.95;;;15.05;;
787;SDS011;16074;42.708;23.312;2023-04-01T04:23:59;17.80;;;14.68;;
787;SDS011;16074;42.708;23.312;2023-04-01T04:26:40;24.13;;;16.38;;
787;SDS011;16074;42.708;23.312;2023-04-01T04:29:08;17.85;;;15.35;;
787;SDS011;16074;42.708;23.312;2023-04-01T04:31:37;17.13;;;15.40;;
787;SDS011;16074;42.708;23.312;2023-04-01T04:34:07;22.50;;;14.07;;
787;SDS011;16074;42.708;23.312;2023-04-01T04:36:35;18.52;;;15.40;;
787;SDS011;16074;42.708;23.312;2023-04-01T04:39:04;19.65;;;15.45;;
787;SDS011;16074;42.708;23.312;2023-04-01T04:41:33;17.80;;;13.70;;
787;SDS011;16074;42.708;23.312;2023-04-01T04:44:05;15.88;;;13.30;;
787;SDS011;16074;42.708;23.312;2023-04-01T04:46:33;17.40;;;15.45;;
787;SDS011;16074;42.708;23.312;2023-04-01T04:49:13;17.33;;;15.40;;
787;SDS011;16074;42.708;23.312;2023-04-01T04:51:41;21.38;;;16.05;;
787;SDS011;16074;42.708;23.312;2023-04-01T04:54:11;16.30;;;13.32;;
787;SDS011;16074;42.708;23.312;2023-04-01T04:56:51;22.25;;;17.55;;
787;SDS011;16074;42.708;23.312;2023-04-01T04:59:21;18.40;;;14.80;;
787;SDS011;16074;42.708;23.312;2023-04-01T05:02:07;18.88;;;14.82;;
787;SDS011;16074;42.708;23.312;2023-04-01T05:04:36;23.60;;;14.73;;
787;SDS011;16074;42.708;23.312;2023-04-01T05:07:08;16.50;;;14.85;;
787;SDS011;16074;42.708;23.312;2023-04-01T05:09:36;15.27;;;13.60;;
787;SDS011;16074;42.708;23.312;2023-04-01T05:12:05;21.35;;;15.75;;
787;SDS011;16074;42.708;23.312;2023-04-01T05:14:54;16.98;;;13.95;;
787;SDS011;16074;42.708;23.312;2023-04-01T05:17:23;13.65;;;11.77;;
787;SDS011;16074;42.708;23.312;2023-04-01T05:19:52;22.05;;;14.43;;
787;SDS011;16074;42.708;23.312;2023-04-01T05:22:21;18.65;;;14.90;;
787;SDS011;16074;42.708;23.312;2023-04-01T05:24:50;22.63;;;19.02;;
787;SDS011;16074;42.708;23.312;2023-04-01T05:27:18;21.70;;;14.27;;
787;SDS011;16074;42.708;23.312;2023-04-01T05:29:47;19.70;;;14.90;;
787;SDS011;16074;42.708;23.312;2023-04-01T05:32:50;19.75;;;11.35;;
787;SDS011;16074;42.708;23.312;2023-04-01T05:35:20;14.60;;;13.02;;
787;SDS011;16074;42.708;23.312;2023-04-01T05:37:48;18.17;;;14.00;;
787;SDS011;16074;42.708;23.312;2023-04-01T05:40:17;20.42;;;15.57;;
787;SDS011;16074;42.708;23.312;2023-04-01T05:42:45;19.05;;;13.20;;
787;SDS011;16074;42.708;23.312;2023-04-01T05:45:15;14.45;;;11.85;;
787;SDS011;16074;42.708;23.312;2023-04-01T05:48:01;13.23;;;11.90;;
787;SDS011;16074;42.708;23.312;2023-04-01T05:50:37;14.98;;;11.63;;
787;SDS011;16074;42.708;23.312;2023-04-01T05:53:09;20.65;;;13.65;;
787;SDS011;16074;42.708;23.312;2023-04-01T05:55:41;15.63;;;12.88;;
787;SDS011;16074;42.708;23.312;2023-04-01T05:58:09;18.50;;;12.10;;
787;SDS011;16074;42.708;23.312;2023-04-01T06:00:40;10.77;;;9.68;;
787;SDS011;16074;42.708;23.312;2023-04-01T06:03:08;10.80;;;9.80;;
787;SDS011;16074;42.708;23.312;2023-04-01T06:05:40;15.13;;;10.15;;
787;SDS011;16074;42.708;23.312;2023-04-01T06:08:10;13.75;;;8.80;;
787;SDS011;16074;42.708;23.312;2023-04-01T06:10:57;9.57;;;8.68;;
787;SDS011;16074;42.708;23.312;2023-04-01T06:13:37;10.05;;;9.05;;
787;SDS011;16074;42.708;23.312;2023-04-01T06:16:17;10.40;;;9.27;;
787;SDS011;16074;42.708;23.312;2023-04-01T06:22:05;9.70;;;8.80;;
787;SDS011;16074;42.708;23.312;2023-04-01T06:24:53;9.30;;;7.97;;
787;SDS011;16074;42.708;23.312;2023-04-01T06:27:47;10.13;;;8.85;;
787;SDS011;16074;42.708;23.312;2023-04-01T06:30:35;10.85;;;8.55;;
787;SDS011;16074;42.708;23.312;2023-04-01T06:33:16;9.43;;;8.48;;
787;SDS011;16074;42.708;23.312;2023-04-01T06:36:00;11.65;;;8.00;;
787;SDS011;16074;42.708;23.312;2023-04-01T06:38:43;8.80;;;8.00;;
787;SDS011;16074;42.708;23.312;2023-04-01T06:41:29;8.38;;;7.30;;
787;SDS011;16074;42.708;23.312;2023-04-01T06:44:16;8.88;;;8.07;;
787;SDS011;16074;42.708;23.312;2023-04-01T06:47:13;7.72;;;7.03;;
787;SDS011;16074;42.708;23.312;2023-04-01T06:50:14;21.80;;;7.27;;
787;SDS011;16074;42.708;23.312;2023-04-01T06:53:31;7.95;;;7.03;;
787;SDS011;16074;42.708;23.312;2023-04-01T06:56:26;9.88;;;7.07;;
787;SDS011;16074;42.708;23.312;2023-04-01T06:59:02;8.75;;;8.02;;
787;SDS011;16074;42.708;23.312;2023-04-01T07:01:35;9.65;;;7.50;;
787;SDS011;16074;42.708;23.312;2023-04-01T07:04:09;10.67;;;7.63;;
787;SDS011;16074;42.708;23.312;2023-04-01T07:06:43;8.75;;;7.85;;
787;SDS011;16074;42.708;23.312;2023-04-01T07:09:18;13.60;;;8.80;;
787;SDS011;16074;42.708;23.312;2023-04-01T07:12:18;7.60;;;6.80;;
787;SDS011;16074;42.708;23.312;2023-04-01T07:15:16;8.52;;;7.60;;
787;SDS011;16074;42.708;23.312;2023-04-01T07:17:49;8.90;;;7.22;;
787;SDS011;16074;42.708;23.312;2023-04-01T07:20:22;9.02;;;7.32;;
787;SDS011;16074;42.708;23.312;2023-04-01T07:22:54;8.77;;;7.97;;
787;SDS011;16074;42.708;23.312;2023-04-01T07:25:47;9.43;;;7.67;;
787;SDS011;16074;42.708;23.312;2023-04-01T07:28:31;12.52;;;7.88;;
787;SDS011;16074;42.708;23.312;2023-04-01T07:31:30;10.27;;;9.23;;
787;SDS011;16074;42.708;23.312;2023-04-01T07:34:15;9.80;;;8.88;;
787;SDS011;16074;42.708;23.312;2023-04-01T07:36:53;9.43;;;8.40;;
787;SDS011;16074;42.708;23.312;2023-04-01T07:39:30;9.32;;;8.38;;
787;SDS011;16074;42.708;23.312;2023-04-01T07:42:18;9.43;;;8.10;;
787;SDS011;16074;42.708;23.312;2023-04-01T07:44:54;16.90;;;10.30;;
787;SDS011;16074;42.708;23.312;2023-04-01T07:47:38;9.37;;;8.30;;
787;SDS011;16074;42.708;23.312;2023-04-01T07:50:18;13.70;;;12.33;;
787;SDS011;16074;42.708;23.312;2023-04-01T07:52:55;10.73;;;8.80;;
787;SDS011;16074;42.708;23.312;2023-04-01T07:55:35;10.67;;;9.57;;
787;SDS011;16074;42.708;23.312;2023-04-01T07:58:14;12.87;;;8.37;;
787;SDS011;16074;42.708;23.312;2023-04-01T08:00:55;15.83;;;10.20;;
787;SDS011;16074;42.708;23.312;2023-04-01T08:03:41;8.53;;;7.83;;
787;SDS011;16074;42.708;23.312;2023-04-01T08:06:31;8.00;;;7.40;;
787;SDS011;16074;42.708;23.312;2023-04-01T08:09:09;10.47;;;8.23;;
787;SDS011;16074;42.708;23.312;2023-04-01T08:12:04;10.03;;;8.50;;
787;SDS011;16074;42.708;23.312;2023-04-01T08:15:02;11.43;;;7.47;;
787;SDS011;16074;42.708;23.312;2023-04-01T08:18:01;7.90;;;7.30;;
787;SDS011;16074;42.708;23.312;2023-04-01T08:20:39;13.80;;;8.57;;
787;SDS011;16074;42.708;23.312;2023-04-01T08:23:14;10.83;;;8.60;;
787;SDS011;16074;42.708;23.312;2023-04-01T08:25:46;13.17;;;8.40;;
787;SDS011;16074;42.708;23.312;2023-04-01T08:28:21;17.23;;;8.43;;
787;SDS011;16074;42.708;23.312;2023-04-01T08:30:57;10.33;;;8.93;;
787;SDS011;16074;42.708;23.312;2023-04-01T08:33:34;15.03;;;8.90;;
787;SDS011;16074;42.708;23.312;2023-04-01T08:36:09;9.67;;;8.43;;
787;SDS011;16074;42.708;23.312;2023-04-01T08:38:44;13.23;;;7.67;;
787;SDS011;16074;42.708;23.312;2023-04-01T08:41:25;9.70;;;6.90;;
787;SDS011;16074;42.708;23.312;2023-04-01T08:44:45;8.50;;;7.60;;
787;SDS011;16074;42.708;23.312;2023-04-01T08:47:42;11.63;;;7.10;;
787;SDS011;16074;42.708;23.312;2023-04-01T08:50:37;7.53;;;6.33;;
787;SDS011;16074;42.708;23.312;2023-04-01T08:53:26;9.50;;;7.50;;
787;SDS011;16074;42.708;23.312;2023-04-01T08:56:12;7.47;;;6.70;;
787;SDS011;16074;42.708;23.312;2023-04-01T08:58:58;7.97;;;6.83;;
787;SDS011;16074;42.708;23.312;2023-04-01T09:01:42;9.37;;;5.70;;
787;SDS011;16074;42.708;23.312;2023-04-01T09:04:53;10.40;;;6.73;;
787;SDS011;16074;42.708;23.312;2023-04-01T09:07:42;7.03;;;6.43;;
787;SDS011;16074;42.708;23.312;2023-04-01T09:14:00;11.77;;;5.87;;
787;SDS011;16074;42.708;23.312;2023-04-01T09:20:42;5.97;;;5.20;;
787;SDS011;16074;42.708;23.312;2023-04-01T09:26:27;6.47;;;5.73;;
787;SDS011;16074;42.708;23.312;2023-04-01T09:29:16;7.43;;;5.50;;
787;SDS011;16074;42.708;23.312;2023-04-01T09:35:22;6.30;;;5.30;;
787;SDS011;16074;42.708;23.312;2023-04-01T09:38:13;5.87;;;4.90;;
787;SDS011;16074;42.708;23.312;2023-04-01T09:40:53;4.67;;;4.27;;
787;SDS011;16074;42.708;23.312;2023-04-01T09:43:39;6.10;;;4.90;;
787;SDS011;16074;42.708;23.312;2023-04-01T09:46:23;9.80;;;6.07;;
787;SDS011;16074;42.708;23.312;2023-04-01T09:52:08;7.97;;;5.37;;
787;SDS011;16074;42.708;23.312;2023-04-01T09:54:50;5.80;;;5.30;;
787;SDS011;16074;42.708;23.312;2023-04-01T10:04:09;5.00;;;4.53;;
787;SDS011;16074;42.708;23.312;2023-04-01T10:06:58;8.43;;;5.60;;
787;SDS011;16074;42.708;23.312;2023-04-01T10:10:10;7.77;;;6.40;;
787;SDS011;16074;42.708;23.312;2023-04-01T10:13:01;9.83;;;8.10;;
787;SDS011;16074;42.708;23.312;2023-04-01T10:25:50;5.40;;;4.90;;
787;SDS011;16074;42.708;23.312;2023-04-01T10:38:02;6.40;;;5.80;;
787;SDS011;16074;42.708;23.312;2023-04-01T10:40:58;7.80;;;5.60;;
787;SDS011;16074;42.708;23.312;2023-04-01T10:44:25;10.40;;;5.57;;
787;SDS011;16074;42.708;23.312;2023-04-01T10:47:32;5.67;;;5.17;;
787;SDS011;16074;42.708;23.312;2023-04-01T10:50:25;5.80;;;4.87;;
787;SDS011;16074;42.708;23.312;2023-04-01T10:53:29;9.03;;;5.43;;
787;SDS011;16074;42.708;23.312;2023-04-01T10:56:33;7.87;;;6.37;;
787;SDS011;16074;42.708;23.312;2023-04-01T11:06:12;7.40;;;6.00;;
787;SDS011;16074;42.708;23.312;2023-04-01T11:09:14;7.70;;;6.63;;
787;SDS011;16074;42.708;23.312;2023-04-01T11:18:26;8.00;;;6.70;;
787;SDS011;16074;42.708;23.312;2023-04-01T11:28:25;16.60;;;6.90;;
787;SDS011;16074;42.708;23.312;2023-04-01T11:31:20;7.53;;;6.30;;
787;SDS011;16074;42.708;23.312;2023-04-01T11:33:57;9.30;;;7.10;;
787;SDS011;16074;42.708;23.312;2023-04-01T11:36:36;11.90;;;7.40;;
787;SDS011;16074;42.708;23.312;2023-04-01T11:39:22;4.13;;;3.70;;
787;SDS011;16074;42.708;23.312;2023-04-01T11:42:03;5.97;;;3.97;;
787;SDS011;16074;42.708;23.312;2023-04-01T11:45:07;4.03;;;3.35;;
787;SDS011;16074;42.708;23.312;2023-04-01T11:51:01;5.43;;;4.63;;
787;SDS011;16074;42.708;23.312;2023-04-01T11:53:47;6.25;;;4.90;;
787;SDS011;16074;42.708;23.312;2023-04-01T11:56:34;10.60;;;5.22;;
787;SDS011;16074;42.708;23.312;2023-04-01T11:59:29;9.18;;;8.25;;
787;SDS011;16074;42.708;23.312;2023-04-01T12:02:16;8.30;;;7.47;;
787;SDS011;16074;42.708;23.312;2023-04-01T12:04:58;6.47;;;5.45;;
787;SDS011;16074;42.708;23.312;2023-04-01T12:10:33;7.55;;;6.80;;
787;SDS011;16074;42.708;23.312;2023-04-01T12:13:14;7.97;;;7.28;;
787;SDS011;16074;42.708;23.312;2023-04-01T12:15:58;9.98;;;8.00;;
787;SDS011;16074;42.708;23.312;2023-04-01T12:18:45;9.70;;;8.30;;
787;SDS011;16074;42.708;23.312;2023-04-01T12:21:17;10.43;;;9.30;;
787;SDS011;16074;42.708;23.312;2023-04-01T12:23:57;10.75;;;9.68;;
787;SDS011;16074;42.708;23.312;2023-04-01T12:26:53;10.77;;;9.68;;
787;SDS011;16074;42.708;23.312;2023-04-01T12:32:24;9.75;;;8.88;;
787;SDS011;16074;42.708;23.312;2023-04-01T12:35:02;10.65;;;9.63;;
787;SDS011;16074;42.708;23.312;2023-04-01T12:37:45;17.27;;;11.52;;
787;SDS011;16074;42.708;23.312;2023-04-01T12:40:27;12.23;;;11.10;;
787;SDS011;16074;42.708;23.312;2023-04-01T12:43:34;17.40;;;11.82;;
787;SDS011;16074;42.708;23.312;2023-04-01T12:46:22;18.67;;;11.98;;
787;SDS011;16074;42.708;23.312;2023-04-01T12:52:04;10.55;;;9.75;;
787;SDS011;16074;42.708;23.312;2023-04-01T12:54:58;10.10;;;9.05;;
787;SDS011;16074;42.708;23.312;2023-04-01T12:57:54;10.23;;;9.13;;
787;SDS011;16074;42.708;23.312;2023-04-01T13:03:46;8.82;;;7.93;;
787;SDS011;16074;42.708;23.312;2023-04-01T13:06:25;8.63;;;7.88;;
787;SDS011;16074;42.708;23.312;2023-04-01T13:09:11;9.25;;;7.82;;
787;SDS011;16074;42.708;23.312;2023-04-01T13:11:59;7.97;;;7.28;;
787;SDS011;16074;42.708;23.312;2023-04-01T13:14:50;10.13;;;7.15;;
787;SDS011;16074;42.708;23.312;2023-04-01T13:17:33;8.68;;;7.97;;
787;SDS011;16074;42.708;23.312;2023-04-01T13:20:11;9.40;;;8.40;;
787;SDS011;16074;42.708;23.312;2023-04-01T13:22:50;13.70;;;9.80;;
787;SDS011;16074;42.708;23.312;2023-04-01T13:25:27;10.38;;;9.48;;
787;SDS011;16074;42.708;23.312;2023-04-01T13:28:06;14.18;;;12.98;;
787;SDS011;16074;42.708;23.312;2023-04-01T13:30:43;13.05;;;10.80;;
787;SDS011;16074;42.708;23.312;2023-04-01T13:33:20;11.45;;;10.32;;
787;SDS011;16074;42.708;23.312;2023-04-01T13:36:00;16.05;;;11.43;;
787;SDS011;16074;42.708;23.312;2023-04-01T13:38:42;20.33;;;14.57;;
787;SDS011;16074;42.708;23.312;2023-04-01T13:41:23;20.33;;;13.55;;
787;SDS011;16074;42.708;23.312;2023-04-01T13:44:02;13.90;;;11.38;;
787;SDS011;16074;42.708;23.312;2023-04-01T13:46:41;6.40;;;5.30;;
787;SDS011;16074;42.708;23.312;2023-04-01T13:49:42;10.80;;;9.30;;
787;SDS011;16074;42.708;23.312;2023-04-01T13:52:27;4.17;;;3.77;;
787;SDS011;16074;42.708;23.312;2023-04-01T13:55:20;5.57;;;4.13;;
787;SDS011;16074;42.708;23.312;2023-04-01T13:58:09;4.67;;;3.13;;
787;SDS011;16074;42.708;23.312;2023-04-01T14:00:56;3.30;;;3.00;;
787;SDS011;16074;42.708;23.312;2023-04-01T14:03:44;2.50;;;2.30;;
787;SDS011;16074;42.708;23.312;2023-04-01T14:06:34;4.40;;;3.93;;
787;SDS011;16074;42.708;23.312;2023-04-01T14:09:14;2.47;;;2.37;;
787;SDS011;16074;42.708;23.312;2023-04-01T14:12:09;1.80;;;1.53;;
787;SDS011;16074;42.708;23.312;2023-04-01T14:14:47;1.90;;;1.80;;
787;SDS011;16074;42.708;23.312;2023-04-01T14:17:29;2.57;;;2.07;;
787;SDS011;16074;42.708;23.312;2023-04-01T14:20:19;11.03;;;6.33;;
787;SDS011;16074;42.708;23.312;2023-04-01T14:22:57;7.53;;;6.93;;
787;SDS011;16074;42.708;23.312;2023-04-01T14:25:41;7.57;;;6.87;;
787;SDS011;16074;42.708;23.312;2023-04-01T14:28:31;6.80;;;5.90;;
787;SDS011;16074;42.708;23.312;2023-04-01T14:31:15;5.67;;;5.10;;
787;SDS011;16074;42.708;23.312;2023-04-01T14:33:54;6.03;;;5.50;;
787;SDS011;16074;42.708;23.312;2023-04-01T14:36:37;7.17;;;6.47;;
787;SDS011;16074;42.708;23.312;2023-04-01T14:39:20;8.10;;;5.50;;
787;SDS011;16074;42.708;23.312;2023-04-01T14:42:06;5.60;;;5.20;;
787;SDS011;16074;42.708;23.312;2023-04-01T14:44:58;5.53;;;5.13;;
787;SDS011;16074;42.708;23.312;2023-04-01T14:47:46;5.20;;;4.57;;
787;SDS011;16074;42.708;23.312;2023-04-01T14:50:17;4.27;;;3.97;;
787;SDS011;16074;42.708;23.312;2023-04-01T14:52:52;4.83;;;4.43;;
787;SDS011;16074;42.708;23.312;2023-04-01T14:55:28;5.67;;;5.17;;
787;SDS011;16074;42.708;23.312;2023-04-01T14:58:11;5.60;;;4.83;;
787;SDS011;16074;42.708;23.312;2023-04-01T15:00:48;5.93;;;5.10;;
787;SDS011;16074;42.708;23.312;2023-04-01T15:03:24;5.97;;;5.47;;
787;SDS011;16074;42.708;23.312;2023-04-01T15:06:01;6.30;;;5.67;;
787;SDS011;16074;42.708;23.312;2023-04-01T15:08:53;5.93;;;5.43;;
787;SDS011;16074;42.708;23.312;2023-04-01T15:11:32;5.83;;;5.20;;
787;SDS011;16074;42.708;23.312;2023-04-01T15:14:23;6.70;;;6.10;;
787;SDS011;16074;42.708;23.312;2023-04-01T15:17:01;7.03;;;5.10;;
787;SDS011;16074;42.708;23.312;2023-04-01T15:19:42;6.40;;;4.93;;
787;SDS011;16074;42.708;23.312;2023-04-01T15:22:28;4.50;;;4.10;;
787;SDS011;16074;42.708;23.312;2023-04-01T15:25:15;4.50;;;4.10;;
787;SDS011;16074;42.708;23.312;2023-04-01T15:27:55;4.00;;;3.47;;
787;SDS011;16074;42.708;23.312;2023-04-01T15:30:34;4.70;;;4.27;;
787;SDS011;16074;42.708;23.312;2023-04-01T15:36:05;4.37;;;4.07;;
787;SDS011;16074;42.708;23.312;2023-04-01T15:38:47;33.30;;;21.60;;
787;SDS011;16074;42.708;23.312;2023-04-01T15:41:20;13.87;;;11.13;;
787;SDS011;16074;42.708;23.312;2023-04-01T15:43:55;8.87;;;7.97;;
787;SDS011;16074;42.708;23.312;2023-04-01T15:46:36;6.13;;;5.63;;
787;SDS011;16074;42.708;23.312;2023-04-01T15:49:13;4.30;;;3.90;;
787;SDS011;16074;42.708;23.312;2023-04-01T15:52:02;3.20;;;3.00;;
787;SDS011;16074;42.708;23.312;2023-04-01T15:54:49;2.53;;;2.38;;
787;SDS011;16074;42.708;23.312;2023-04-01T15:57:40;2.97;;;2.78;;
787;SDS011;16074;42.708;23.312;2023-04-01T16:00:23;5.22;;;4.07;;
787;SDS011;16074;42.708;23.312;2023-04-01T16:03:06;5.03;;;4.30;;
787;SDS011;16074;42.708;23.312;2023-04-01T16:05:55;5.75;;;5.35;;
787;SDS011;16074;42.708;23.312;2023-04-01T16:08:43;8.25;;;6.60;;
787;SDS011;16074;42.708;23.312;2023-04-01T16:11:25;7.10;;;6.50;;
787;SDS011;16074;42.708;23.312;2023-04-01T16:14:09;7.07;;;6.35;;
787;SDS011;16074;42.708;23.312;2023-04-01T16:16:49;5.97;;;5.47;;
787;SDS011;16074;42.708;23.312;2023-04-01T16:19:31;7.18;;;6.60;;
787;SDS011;16074;42.708;23.312;2023-04-01T16:22:14;7.00;;;6.40;;
787;SDS011;16074;42.708;23.312;2023-04-01T16:24:48;7.05;;;6.32;;
787;SDS011;16074;42.708;23.312;2023-04-01T16:27:24;6.22;;;5.63;;
787;SDS011;16074;42.708;23.312;2023-04-01T16:29:58;7.78;;;7.07;;
787;SDS011;16074;42.708;23.312;2023-04-01T16:32:36;8.00;;;7.20;;
787;SDS011;16074;42.708;23.312;2023-04-01T16:35:28;7.10;;;6.50;;
787;SDS011;16074;42.708;23.312;2023-04-01T16:38:04;8.18;;;7.45;;
787;SDS011;16074;42.708;23.312;2023-04-01T16:40:42;7.55;;;6.85;;
787;SDS011;16074;42.708;23.312;2023-04-01T16:43:17;5.85;;;5.22;;
787;SDS011;16074;42.708;23.312;2023-04-01T16:45:54;4.75;;;4.35;;
787;SDS011;16074;42.708;23.312;2023-04-01T16:48:43;4.15;;;3.85;;
787;SDS011;16074;42.708;23.312;2023-04-01T16:51:23;4.80;;;4.40;;
787;SDS011;16074;42.708;23.312;2023-04-01T16:53:52;3.40;;;3.10;;
787;SDS011;16074;42.708;23.312;2023-04-01T16:56:36;4.00;;;3.70;;
787;SDS011;16074;42.708;23.312;2023-04-01T16:59:14;4.78;;;4.38;;
787;SDS011;16074;42.708;23.312;2023-04-01T17:01:48;4.88;;;4.35;;
787;SDS011;16074;42.708;23.312;2023-04-01T17:04:27;3.97;;;3.00;;
787;SDS011;16074;42.708;23.312;2023-04-01T17:07:04;4.65;;;4.25;;
787;SDS011;16074;42.708;23.312;2023-04-01T17:09:46;3.85;;;3.65;;
787;SDS011;16074;42.708;23.312;2023-04-01T17:12:28;3.47;;;3.28;;
787;SDS011;16074;42.708;23.312;2023-04-01T17:15:05;4.22;;;3.92;;
787;SDS011;16074;42.708;23.312;2023-04-01T17:17:49;3.65;;;3.45;;
787;SDS011;16074;42.708;23.312;2023-04-01T17:20:35;4.20;;;3.80;;
787;SDS011;16074;42.708;23.312;2023-04-01T17:23:14;3.95;;;3.75;;
787;SDS011;16074;42.708;23.312;2023-04-01T17:25:49;4.20;;;4.00;;
787;SDS011;16074;42.708;23.312;2023-04-01T17:28:34;5.22;;;4.88;;